Time;durP1;ratioP1;P1;durP2;ratioP2;P2;SDS_P1;SDS_P2;PMS_P1;PMS_P2;Temp;Humidity;BMP_temperature;BMP_pressure;BME280_temperature;BME280_humidity;BME280_pressure;Samples;Min_cycle;Max_cycle;Signal;HPM_P1;HPM_P2
2022/07/20 00:01:02;;;;;;;;;;;;;;;41.15;18.25;100104.00;4406126;32;19997;-70
2022/07/20 00:03:29;;;;;;;;;;;;;;;41.12;18.22;100093.53;4405138;32;20380;-70
2022/07/20 00:05:54;;;;;;;;;;;;;;;41.15;18.16;100090.00;4405825;32;19976;-69
2022/07/20 00:11:19;;;;;;;;;;;;;;;40.98;18.27;100093.63;4404310;32;20582;-67
2022/07/20 00:11:21;;;;;;;;;;;;;;;40.77;18.44;100097.09;4404910;32;19969;-69
2022/07/20 00:13:52;;;;;;;;;;;;;;;40.79;18.43;100099.38;4402998;32;19993;-69
2022/07/20 00:16:18;;;;;;;;;;;;;;;41.00;18.26;100095.91;4402982;32;20001;-69
2022/07/20 00:18:44;;;;;;;;;;;;;;;40.89;18.37;100091.00;4406264;32;19950;-69
2022/07/20 00:21:10;;;;;;;;;;;;;;;40.76;18.47;100092.63;4403415;32;19993;-69
2022/07/20 00:23:36;;;;;;;;;;;;;;;40.84;18.45;100086.34;4406530;32;20001;-69
2022/07/20 00:26:01;;;;;;;;;;;;;;;40.79;18.49;100091.28;4404670;32;20007;-69
2022/07/20 00:28:27;;;;;;;;;;;;;;;40.73;18.55;100087.28;4404878;32;20005;-69
2022/07/20 00:30:52;;;;;;;;;;;;;;;40.80;18.46;100089.09;4402939;32;20009;-70
2022/07/20 00:33:18;;;;;;;;;;;;;;;40.67;18.58;100084.81;4406001;32;19958;-69
2022/07/20 00:35:43;;;;;;;;;;;;;;;40.74;18.53;100091.78;4408159;32;20026;-69
2022/07/20 00:38:09;;;;;;;;;;;;;;;40.55;18.75;100083.50;4407690;32;20016;-68
2022/07/20 00:40:34;;;;;;;;;;;;;;;40.37;18.89;100089.28;4408060;32;20015;-69
2022/07/20 00:42:59;;;;;;;;;;;;;;;40.52;18.76;100087.78;4408303;32;20213;-69
2022/07/20 00:45:25;;;;;;;;;;;;;;;40.49;18.77;100086.16;4408168;32;20001;-69
2022/07/20 00:47:51;;;;;;;;;;;;;;;40.48;18.80;100093.47;4407381;32;20481;-69
2022/07/20 00:50:18;;;;;;;;;;;;;;;40.40;18.87;100096.06;4408008;32;20029;-69
2022/07/20 00:52:43;;;;;;;;;;;;;;;40.41;18.86;100103.47;4407660;32;20406;-69
2022/07/20 00:55:09;;;;;;;;;;;;;;;40.30;18.93;100110.31;4407559;32;20375;-69
2022/07/20 00:57:34;;;;;;;;;;;;;;;40.33;18.90;100106.03;4407907;32;19994;-69
2022/07/20 01:00:00;;;;;;;;;;;;;;;40.23;19.01;100103.31;4406522;32;20021;-69
2022/07/20 01:02:26;;;;;;;;;;;;;;;40.06;19.17;100115.00;4409544;32;19993;-69
2022/07/20 01:04:51;;;;;;;;;;;;;;;39.86;19.33;100111.81;4407345;32;19968;-69
2022/07/20 01:07:17;;;;;;;;;;;;;;;39.77;19.43;100117.91;4407626;32;20028;-69
2022/07/20 01:09:43;;;;;;;;;;;;;;;39.82;19.35;100111.63;4406990;32;20322;-69
2022/07/20 01:12:09;;;;;;;;;;;;;;;39.75;19.35;100112.69;4408734;32;20043;-69
2022/07/20 01:14:35;;;;;;;;;;;;;;;39.52;19.60;100104.94;4408032;32;19950;-69
2022/07/20 01:17:00;;;;;;;;;;;;;;;39.85;19.28;100110.28;4408814;32;19962;-69
2022/07/20 01:19:26;;;;;;;;;;;;;;;39.80;19.34;100114.44;4408554;32;19991;-69
2022/07/20 01:21:52;;;;;;;;;;;;;;;39.75;19.39;100114.91;4407683;32;20028;-69
2022/07/20 01:24:17;;;;;;;;;;;;;;;39.82;19.29;100114.56;4407431;32;20039;-69
2022/07/20 01:26:45;;;;;;;;;;;;;;;39.79;19.34;100121.75;4407316;32;20324;-69
2022/07/20 01:29:11;;;;;;;;;;;;;;;39.81;19.31;100118.87;4405868;32;19973;-69
2022/07/20 01:31:37;;;;;;;;;;;;;;;39.84;19.26;100105.81;4408038;32;19994;-69
2022/07/20 01:34:03;;;;;;;;;;;;;;;39.88;19.22;100108.97;4406048;32;20487;-69
2022/07/20 01:36:29;;;;;;;;;;;;;;;39.74;19.39;100108.22;4408890;32;20385;-69
2022/07/20 01:38:54;;;;;;;;;;;;;;;39.69;19.42;100097.66;4406053;32;20004;-69
2022/07/20 01:41:20;;;;;;;;;;;;;;;39.64;19.49;100104.78;4406293;32;20001;-69
2022/07/20 01:43:46;;;;;;;;;;;;;;;39.73;19.36;100112.59;4407392;32;20013;-69
2022/07/20 01:46:12;;;;;;;;;;;;;;;39.82;19.34;100111.63;4407013;32;20005;-69
2022/07/20 01:48:37;;;;;;;;;;;;;;;39.72;19.45;100105.94;4409975;32;19976;-69
2022/07/20 01:51:03;;;;;;;;;;;;;;;39.75;19.44;100111.94;4406785;32;20331;-69
2022/07/20 01:53:29;;;;;;;;;;;;;;;39.73;19.38;100113.34;4406303;32;20260;-69
2022/07/20 01:55:55;;;;;;;;;;;;;;;39.77;19.29;100109.84;4406437;32;20255;-69
2022/07/20 01:58:21;;;;;;;;;;;;;;;39.77;19.29;100109.84;4404899;32;20233;-69
2022/07/20 02:00:46;;;;;;;;;;;;;;;39.72;19.32;100110.31;4406312;32;20011;-69
2022/07/20 02:03:12;;;;;;;;;;;;;;;39.66;19.36;100104.87;4408048;32;20453;-69
2022/07/20 02:05:38;;;;;;;;;;;;;;;39.47;19.55;100103.19;4408263;32;20425;-69
2022/07/20 02:08:04;;;;;;;;;;;;;;;39.64;19.42;100098.88;4404848;32;20000;-69
2022/07/20 02:10:30;;;;;;;;;;;;;;;39.70;19.33;100096.25;4404955;32;19989;-69
2022/07/20 02:12:55;;;;;;;;;;;;;;;39.67;19.37;100104.19;4404949;32;20032;-69
2022/07/20 02:18:07;;;;;;;;;;;;;;;39.51;19.62;100097.50;4404701;32;20153;-69
2022/07/20 02:20:33;;;;;;;;;;;;;;;39.45;19.81;100099.38;4407151;32;19953;-69
2022/07/20 02:22:58;;;;;;;;;;;;;;;39.47;19.79;100096.53;4407407;32;20318;-69
2022/07/20 02:25:24;;;;;;;;;;;;;;;39.31;20.06;100104.50;4406494;32;19989;-69
2022/07/20 02:27:50;;;;;;;;;;;;;;;39.35;20.08;100105.47;4404724;32;19965;-69
2022/07/20 02:30:15;;;;;;;;;;;;;;;39.27;20.18;100104.31;4405638;32;20402;-69
2022/07/20 02:32:41;;;;;;;;;;;;;;;39.39;20.12;100090.97;4406087;32;20453;-69
2022/07/20 02:35:07;;;;;;;;;;;;;;;39.34;20.21;100091.41;4405164;32;20050;-69
2022/07/20 02:37:33;;;;;;;;;;;;;;;39.38;20.08;100089.44;4407237;32;19973;-69
2022/07/20 02:39:58;;;;;;;;;;;;;;;39.42;20.11;100088.91;4406557;32;20001;-69
2022/07/20 02:42:24;;;;;;;;;;;;;;;39.38;20.23;100095.31;4405370;32;20022;-69
2022/07/20 02:44:50;;;;;;;;;;;;;;;39.31;20.26;100093.50;4405814;32;20694;-69
2022/07/20 02:47:15;;;;;;;;;;;;;;;39.38;20.19;100092.38;4406131;32;20743;-69
2022/07/20 02:49:40;;;;;;;;;;;;;;;39.38;20.20;100095.31;4406517;32;19950;-69
2022/07/20 02:52:06;;;;;;;;;;;;;;;39.28;20.28;100088.91;4405135;32;20305;-69
2022/07/20 02:54:32;;;;;;;;;;;;;;;39.19;20.42;100084.03;4406361;32;19973;-69
2022/07/20 02:56:57;;;;;;;;;;;;;;;39.44;20.24;100080.19;4405049;32;20444;-69
2022/07/20 02:59:22;;;;;;;;;;;;;;;39.45;20.23;100082.47;4404424;32;19953;-69
2022/07/20 03:01:51;;;;;;;;;;;;;;;39.28;20.50;100080.09;4405195;32;20001;-69
2022/07/20 03:04:16;;;;;;;;;;;;;;;39.44;20.34;100072.13;4406912;32;20030;-69
2022/07/20 03:06:42;;;;;;;;;;;;;;;39.30;20.74;100073.53;4405540;32;19966;-69
2022/07/20 03:09:07;;;;;;;;;;;;;;;38.97;21.28;100070.31;4404801;32;20305;-69
2022/07/20 03:11:33;;;;;;;;;;;;;;;38.81;21.48;100069.44;4404605;32;20125;-69
2022/07/20 03:13:59;;;;;;;;;;;;;;;38.68;21.62;100068.00;4407085;32;20634;-69
2022/07/20 03:16:24;;;;;;;;;;;;;;;38.63;21.66;100068.47;4406164;32;20446;-69
2022/07/20 03:18:50;;;;;;;;;;;;;;;38.83;21.41;100073.25;4404693;32;20393;-69
2022/07/20 03:21:16;;;;;;;;;;;;;;;38.97;21.33;100074.03;4407338;32;19981;-69
2022/07/20 03:23:41;;;;;;;;;;;;;;;38.88;21.40;100072.06;4405892;32;20225;-69
2022/07/20 03:26:07;;;;;;;;;;;;;;;38.85;21.50;100078.47;4405228;32;20001;-69
2022/07/20 03:28:32;;;;;;;;;;;;;;;38.82;21.62;100074.66;4403278;32;19995;-69
2022/07/20 03:30:58;;;;;;;;;;;;;;;38.55;22.05;100068.78;4404670;32;20016;-69
2022/07/20 03:33:23;;;;;;;;;;;;;;;38.67;21.78;100077.50;4404935;32;19968;-69
2022/07/20 03:35:49;;;;;;;;;;;;;;;38.68;21.63;100070.97;4404755;32;19965;-69
2022/07/20 03:38:14;;;;;;;;;;;;;;;38.68;21.75;100070.97;4404069;32;20432;-69
2022/07/20 03:40:40;;;;;;;;;;;;;;;38.69;21.65;100072.50;4403743;32;20013;-69
2022/07/20 03:43:05;;;;;;;;;;;;;;;38.66;21.80;100075.97;4406041;32;20031;-69
2022/07/20 03:45:31;;;;;;;;;;;;;;;38.59;21.92;100077.81;4406673;32;19962;-69
2022/07/20 03:47:57;;;;;;;;;;;;;;;38.57;21.88;100074.78;4404331;32;19957;-69
2022/07/20 03:50:22;;;;;;;;;;;;;;;38.38;22.19;100084.00;4406862;32;20014;-69
2022/07/20 03:52:47;;;;;;;;;;;;;;;38.26;22.43;100088.41;4405480;32;20380;-69
2022/07/20 03:55:13;;;;;;;;;;;;;;;38.01;22.82;100094.31;4404108;32;20465;-69
2022/07/20 03:57:39;;;;;;;;;;;;;;;37.80;23.17;100090.19;4404390;32;19961;-69
2022/07/20 04:00:05;;;;;;;;;;;;;;;37.87;22.96;100089.16;4404583;32;20508;-69
2022/07/20 04:02:31;;;;;;;;;;;;;;;38.01;22.83;100082.56;4407469;32;19949;-69
2022/07/20 04:04:56;;;;;;;;;;;;;;;37.85;23.01;100076.50;4405911;32;20290;-69
2022/07/20 04:07:22;;;;;;;;;;;;;;;37.68;23.18;100071.91;4405587;32;20020;-69
2022/07/20 04:09:47;;;;;;;;;;;;;;;37.54;23.42;100061.44;4405129;32;19995;-69
2022/07/20 04:12:16;;;;;;;;;;;;;;;37.63;23.32;100063.44;4408876;32;20007;-69
2022/07/20 04:14:42;;;;;;;;;;;;;;;37.73;23.09;100085.38;4410238;32;19974;-69
2022/07/20 04:17:07;;;;;;;;;;;;;;;37.82;22.83;100087.38;4410104;32;19962;-69
2022/07/20 04:19:34;;;;;;;;;;;;;;;37.91;22.57;100092.31;4407909;32;20022;-69
2022/07/20 04:21:59;;;;;;;;;;;;;;;37.76;22.53;100098.03;4410757;32;19961;-69
2022/07/20 04:24:25;;;;;;;;;;;;;;;37.77;23.10;100109.09;4407965;32;20033;-69
2022/07/20 04:26:51;;;;;;;;;;;;;;;37.76;23.18;100101.72;4407333;32;20068;-69
2022/07/20 04:29:18;;;;;;;;;;;;;;;37.51;23.40;100089.94;4397080;32;20105;-69
2022/07/20 04:31:44;;;;;;;;;;;;;;;37.79;23.14;100099.66;4411155;32;19965;-69
2022/07/20 04:34:10;;;;;;;;;;;;;;;37.88;23.02;100098.72;4410113;32;20178;-69
2022/07/20 04:36:36;;;;;;;;;;;;;;;37.63;23.43;100092.81;4408488;32;20357;-69
2022/07/20 04:39:01;;;;;;;;;;;;;;;37.70;23.24;100100.63;4407571;32;20004;-69
2022/07/20 04:41:27;;;;;;;;;;;;;;;38.03;22.82;100103.25;4409121;32;19972;-69
2022/07/20 04:43:53;;;;;;;;;;;;;;;38.11;22.57;100112.53;4408641;32;19953;-69
2022/07/20 04:46:18;;;;;;;;;;;;;;;38.18;22.43;100117.34;4406028;32;20003;-69
2022/07/20 04:48:44;;;;;;;;;;;;;;;37.90;22.95;100129.00;4408123;32;20406;-69
2022/07/20 04:51:10;;;;;;;;;;;;;;;38.01;22.68;100136.22;4408525;32;20009;-69
2022/07/20 04:53:35;;;;;;;;;;;;;;;38.12;22.75;100131.72;4408342;32;19999;-69
2022/07/20 04:56:01;;;;;;;;;;;;;;;38.15;22.53;100131.16;4408386;32;20005;-69
2022/07/20 04:58:27;;;;;;;;;;;;;;;38.26;22.49;100129.56;4408409;32;20036;-69
2022/07/20 05:00:52;;;;;;;;;;;;;;;38.38;22.32;100119.28;4408209;32;20446;-69
2022/07/20 05:03:18;;;;;;;;;;;;;;;38.68;21.98;100123.91;4408404;32;20031;-69
2022/07/20 05:05:44;;;;;;;;;;;;;;;38.71;21.95;100119.66;4409147;32;20292;-69
2022/07/20 05:08:09;;;;;;;;;;;;;;;38.73;21.95;100134.47;4407427;32;19965;-69
2022/07/20 05:10:35;;;;;;;;;;;;;;;38.81;21.82;100149.66;4407224;32;20015;-69
2022/07/20 05:13:00;;;;;;;;;;;;;;;38.97;21.64;100138.78;4405839;32;19981;-69
2022/07/20 05:15:26;;;;;;;;;;;;;;;38.81;21.78;100149.66;4406914;32;19989;-69
2022/07/20 05:17:52;;;;;;;;;;;;;;;39.03;21.56;100153.06;4407307;32;20016;-69
2022/07/20 05:20:18;;;;;;;;;;;;;;;38.92;21.65;100156.81;4407696;32;20080;-69
2022/07/20 05:22:43;;;;;;;;;;;;;;;38.97;21.64;100146.84;4409575;32;19968;-69
2022/07/20 05:25:09;;;;;;;;;;;;;;;39.02;21.54;100160.34;4391655;32;20598;-69
2022/07/20 05:27:35;;;;;;;;;;;;;;;38.78;21.90;100150.94;4407534;32;20001;-69
2022/07/20 05:30:01;;;;;;;;;;;;;;;38.96;21.77;100148.22;4407610;32;20393;-69
2022/07/20 05:32:26;;;;;;;;;;;;;;;38.96;21.79;100151.16;4406868;32;19997;-69
2022/07/20 05:34:51;;;;;;;;;;;;;;;38.97;21.80;100156.44;4406975;32;20020;-69
2022/07/20 05:37:17;;;;;;;;;;;;;;;38.97;21.83;100168.22;4407103;32;19977;-69
2022/07/20 05:39:43;;;;;;;;;;;;;;;38.88;21.98;100177.97;4407107;32;20373;-69
2022/07/20 05:42:08;;;;;;;;;;;;;;;38.74;22.19;100188.94;4409271;32;19989;-69
2022/07/20 05:44:34;;;;;;;;;;;;;;;38.66;22.44;100193.63;4406772;32;20005;-69
2022/07/20 05:47:00;;;;;;;;;;;;;;;38.67;22.60;100195.16;4406861;32;20322;-69
2022/07/20 05:49:26;;;;;;;;;;;;;;;38.32;23.08;100200.47;4406439;32;19980;-69
2022/07/20 05:51:51;;;;;;;;;;;;;;;38.11;23.31;100206.59;4407837;32;20347;-69
2022/07/20 05:54:17;;;;;;;;;;;;;;;38.43;23.01;100215.09;4406180;32;20016;-69
2022/07/20 05:56:42;;;;;;;;;;;;;;;38.31;23.24;100211.47;4404127;32;19993;-69
2022/07/20 05:59:09;;;;;;;;;;;;;;;38.51;23.12;100227.34;4404047;32;19995;-69
2022/07/20 06:01:34;;;;;;;;;;;;;;;38.19;23.56;100218.81;4408016;32;19958;-69
2022/07/20 06:04:00;;;;;;;;;;;;;;;38.27;23.61;100219.28;4405768;32;20004;-69
2022/07/20 06:06:25;;;;;;;;;;;;;;;38.23;23.73;100228.62;4407862;32;20335;-69
2022/07/20 06:08:50;;;;;;;;;;;;;;;37.86;24.18;100230.81;4406966;32;20028;-69
2022/07/20 06:11:17;;;;;;;;;;;;;;;38.03;24.23;100244.28;4406595;32;19961;-69
2022/07/20 06:13:43;;;;;;;;;;;;;;;37.45;24.96;100262.00;4406154;32;19954;-69
2022/07/20 06:16:08;;;;;;;;;;;;;;;38.19;24.12;100266.59;4392901;32;20472;-68
2022/07/20 06:18:34;;;;;;;;;;;;;;;38.17;24.21;100260.63;4409354;32;19972;-68
2022/07/20 06:20:59;;;;;;;;;;;;;;;38.38;24.01;100271.37;4405854;32;19961;-69
2022/07/20 06:23:26;;;;;;;;;;;;;;;37.22;25.46;100271.63;4407177;32;19996;-69
2022/07/20 06:25:51;;;;;;;;;;;;;;;38.25;24.29;100263.25;4407618;32;20030;-69
2022/07/20 06:28:17;;;;;;;;;;;;;;;37.85;24.86;100261.56;4405170;32;19958;-69
2022/07/20 06:30:42;;;;;;;;;;;;;;;37.86;25.01;100269.00;4404501;32;20356;-69
2022/07/20 06:33:08;;;;;;;;;;;;;;;37.81;25.11;100267.22;4406324;32;19961;-69
2022/07/20 06:35:33;;;;;;;;;;;;;;;37.76;25.11;100271.34;4406360;32;20031;-69
2022/07/20 06:37:59;;;;;;;;;;;;;;;38.14;24.67;100276.59;4406277;32;21099;-69
2022/07/20 06:40:24;;;;;;;;;;;;;;;38.60;24.07;100281.53;4405551;32;20978;-69
2022/07/20 06:42:50;;;;;;;;;;;;;;;38.85;23.67;100285.19;4405165;32;19950;-69
2022/07/20 06:45:16;;;;;;;;;;;;;;;38.97;23.45;100282.97;4399101;32;20224;-69
2022/07/20 06:47:41;;;;;;;;;;;;;;;38.88;23.33;100289.78;4402991;32;19972;-69
2022/07/20 06:50:09;;;;;;;;;;;;;;;39.14;23.22;100291.28;4394949;32;20271;-69
2022/07/20 06:52:34;;;;;;;;;;;;;;;38.42;23.96;100298.84;4398075;32;20019;-69
2022/07/20 06:55:00;;;;;;;;;;;;;;;38.23;24.01;100308.00;4397919;32;19984;-69
2022/07/20 06:57:26;;;;;;;;;;;;;;;37.63;24.92;100313.84;4393817;32;20472;-69
2022/07/20 06:59:52;;;;;;;;;;;;;;;37.91;24.67;100323.62;4395632;32;20119;-69
2022/07/20 07:02:18;;;;;;;;;;;;;;;37.64;24.93;100326.34;4399343;32;19996;-69
2022/07/20 07:04:43;;;;;;;;;;;;;;;38.39;24.17;100328.75;4395487;32;19961;-69
2022/07/20 07:07:09;;;;;;;;;;;;;;;38.45;24.08;100318.13;4394945;32;20641;-69
2022/07/20 07:09:34;;;;;;;;;;;;;;;37.54;25.25;100323.53;4395878;32;19973;-69
2022/07/20 07:12:00;;;;;;;;;;;;;;;38.76;23.84;100335.37;4398857;32;20001;-69
2022/07/20 07:14:26;;;;;;;;;;;;;;;38.28;24.41;100344.28;4394839;32;20301;-69
2022/07/20 07:16:52;;;;;;;;;;;;;;;38.43;24.22;100341.53;4395474;32;20406;-70
2022/07/20 07:19:18;;;;;;;;;;;;;;;38.22;24.60;100343.91;4398174;32;19999;-69
2022/07/20 07:21:43;;;;;;;;;;;;;;;38.68;24.08;100347.44;4402511;32;19997;-70
2022/07/20 07:24:09;;;;;;;;;;;;;;;38.09;24.63;100356.31;4398677;32;19949;-69
2022/07/20 07:26:34;;;;;;;;;;;;;;;38.63;24.05;100353.75;4398049;32;19989;-69
2022/07/20 07:29:00;;;;;;;;;;;;;;;38.38;24.35;100366.25;4399761;32;20685;-70
2022/07/20 07:31:25;;;;;;;;;;;;;;;38.82;23.84;100368.87;4400688;32;20093;-69
2022/07/20 07:33:51;;;;;;;;;;;;;;;38.76;23.95;100377.34;4399568;32;20001;-70
2022/07/20 07:36:17;;;;;;;;;;;;;;;38.63;24.03;100372.19;4398180;32;20502;-69
2022/07/20 07:38:42;;;;;;;;;;;;;;;37.90;25.06;100375.78;4398943;32;20411;-69
2022/07/20 07:41:08;;;;;;;;;;;;;;;38.03;24.94;100377.28;4397075;32;20135;-69
2022/07/20 07:43:34;;;;;;;;;;;;;;;38.28;24.64;100380.31;4403257;32;20386;-69
2022/07/20 07:45:59;;;;;;;;;;;;;;;38.09;24.85;100377.69;4402033;32;20020;-69
2022/07/20 07:48:25;;;;;;;;;;;;;;;38.27;24.62;100383.88;4402123;32;20461;-69
2022/07/20 07:50:50;;;;;;;;;;;;;;;38.46;24.39;100378.47;4405170;32;21089;-69
2022/07/20 07:53:16;;;;;;;;;;;;;;;37.36;25.62;100389.16;4403740;32;20000;-70
2022/07/20 07:55:42;;;;;;;;;;;;;;;36.99;26.09;100383.03;4407549;32;20067;-69
2022/07/20 07:58:08;;;;;;;;;;;;;;;36.55;26.60;100376.34;4400754;32;20411;-69
2022/07/20 08:00:35;;;;;;;;;;;;;;;37.22;25.88;100373.56;4403719;32;20015;-69
2022/07/20 08:03:01;;;;;;;;;;;;;;;37.67;25.33;100375.03;4402015;32;20100;-70
2022/07/20 08:05:26;;;;;;;;;;;;;;;37.70;25.33;100379.63;4404773;32;20016;-69
2022/07/20 08:07:52;;;;;;;;;;;;;;;37.19;26.03;100374.81;4402209;32;20457;-71
2022/07/20 08:10:18;;;;;;;;;;;;;;;38.03;25.04;100377.28;4401482;32;20631;-71
2022/07/20 08:12:44;;;;;;;;;;;;;;;38.45;24.48;100376.16;4401290;32;20002;-71
2022/07/20 08:15:10;;;;;;;;;;;;;;;38.70;24.09;100362.28;4406596;32;20011;-71
2022/07/20 08:17:36;;;;;;;;;;;;;;;38.67;23.89;100356.91;4405113;32;20016;-71
2022/07/20 08:20:05;;;;;;;;;;;;;;;38.36;24.36;100362.37;4407399;32;19985;-69
2022/07/20 08:22:30;;;;;;;;;;;;;;;38.69;23.89;100354.88;4403382;32;21507;-71
2022/07/20 08:24:56;;;;;;;;;;;;;;;38.53;23.97;100350.97;4399741;32;20025;-70
2022/07/20 08:27:21;;;;;;;;;;;;;;;38.21;24.38;100351.19;4398406;32;20019;-70
2022/07/20 08:29:48;;;;;;;;;;;;;;;38.53;24.24;100353.16;4401931;32;20528;-71
2022/07/20 08:32:13;;;;;;;;;;;;;;;38.40;24.17;100363.41;4403743;32;20000;-71
2022/07/20 08:34:39;;;;;;;;;;;;;;;38.55;24.04;100362.87;4392971;32;20506;-70
2022/07/20 08:37:05;;;;;;;;;;;;;;;38.46;24.29;100381.41;4403335;32;20009;-71
2022/07/20 08:39:31;;;;;;;;;;;;;;;38.53;24.27;100394.34;4402937;32;20034;-72
2022/07/20 08:41:56;;;;;;;;;;;;;;;37.82;25.08;100403.88;4392951;32;20024;-70
2022/07/20 08:44:22;;;;;;;;;;;;;;;38.55;24.21;100403.25;4404580;32;20052;-71
2022/07/20 08:46:49;;;;;;;;;;;;;;;38.96;23.70;100407.97;4405522;32;20027;-70
2022/07/20 08:49:15;;;;;;;;;;;;;;;38.44;24.30;100413.66;4404664;32;20140;-71
2022/07/20 08:51:41;;;;;;;;;;;;;;;38.47;24.28;100423.34;4405719;32;20013;-71
2022/07/20 08:54:07;;;;;;;;;;;;;;;39.39;23.22;100423.75;4406561;32;19997;-71
2022/07/20 08:56:32;;;;;;;;;;;;;;;39.39;22.95;100435.53;4408937;32;20316;-71
2022/07/20 08:58:58;;;;;;;;;;;;;;;39.54;22.70;100434.16;4406848;32;20091;-71
2022/07/20 09:01:23;;;;;;;;;;;;;;;38.96;23.38;100443.28;4408365;32;20403;-71
2022/07/20 09:04:03;;;;;;;;;;;;;;;38.68;23.66;100432.75;4403442;32;20454;-73
2022/07/20 09:06:29;;;;;;;;;;;;;;;38.22;24.44;100435.78;4407321;32;20393;-71
2022/07/20 09:09:04;;;;;;;;;;;;;;;37.70;24.92;100444.25;4405282;32;19994;-71
2022/07/20 09:11:30;;;;;;;;;;;;;;;38.04;24.61;100452.28;4404761;32;20536;-70
2022/07/20 09:13:56;;;;;;;;;;;;;;;38.95;23.75;100456.44;4404775;32;19962;-72
2022/07/20 09:16:53;;;;;;;;;;;;;;;39.49;23.02;100468.50;4408572;32;20135;-71
2022/07/20 09:19:18;;;;;;;;;;;;;;;39.16;23.18;100476.84;4404065;32;20003;-71
2022/07/20 09:21:44;;;;;;;;;;;;;;;40.07;22.38;100465.13;4408608;32;20037;-71
2022/07/20 09:24:10;;;;;;;;;;;;;;;39.24;23.18;100485.41;4407024;32;20351;-70
2022/07/20 09:26:36;;;;;;;;;;;;;;;38.49;23.86;100485.25;4406779;32;20649;-70
2022/07/20 09:29:03;;;;;;;;;;;;;;;39.07;23.27;100500.56;4405786;32;20434;-71
2022/07/20 09:31:33;;;;;;;;;;;;;;;39.22;23.04;100515.47;4402195;32;20229;-71
2022/07/20 09:36:36;;;;;;;;;;;;;;;39.98;22.41;100533.91;3950590;32;15823605;-71
2022/07/20 09:39:07;;;;;;;;;;;;;;;39.98;22.41;100533.91;4428257;32;20030;-71
2022/07/20 09:41:34;;;;;;;;;;;;;;;39.75;22.50;100528.13;4433988;32;20040;-71
2022/07/20 09:44:00;;;;;;;;;;;;;;;39.33;22.75;100525.69;4438350;32;20194;-72
2022/07/20 09:46:28;;;;;;;;;;;;;;;39.25;22.84;100525.97;4433350;32;20041;-70
2022/07/20 09:48:55;;;;;;;;;;;;;;;40.39;21.83;100519.22;4426090;32;20008;-71
2022/07/20 09:56:43;;;;;;;;;;;;;;;41.87;19.95;100508.44;3916147;32;15723132;-71
2022/07/20 09:59:10;;;;;;;;;;;;;;;41.87;19.95;100508.44;4396206;32;20320;-71
2022/07/20 10:01:38;;;;;;;;;;;;;;;41.23;20.48;100511.91;4392931;32;20044;-70
2022/07/20 10:04:05;;;;;;;;;;;;;;;41.28;20.37;100508.50;4390861;32;19997;-70
2022/07/20 10:06:31;;;;;;;;;;;;;;;41.06;20.72;100509.50;4393131;32;19993;-71
2022/07/20 10:08:58;;;;;;;;;;;;;;;40.35;21.32;100505.03;4390608;32;20043;-70
2022/07/20 10:11:24;;;;;;;;;;;;;;;41.91;19.83;100521.25;4393088;32;20010;-70
2022/07/20 10:13:51;;;;;;;;;;;;;;;42.25;19.44;100519.13;4390226;32;20248;-71
2022/07/20 10:16:21;;;;;;;;;;;;;;;41.58;19.97;100529.16;4394364;32;19997;-70
2022/07/20 10:18:47;;;;;;;;;;;;;;;42.77;18.93;100524.50;4389762;32;20869;-70
2022/07/20 10:21:32;;;;;;;;;;;;;;;43.38;18.46;100533.81;4392418;32;20005;-70
2022/07/20 10:24:18;;;;;;;;;;;;;;;43.18;18.50;100544.84;4392945;32;20577;-69
2022/07/20 10:26:45;;;;;;;;;;;;;;;43.67;17.94;100560.25;4393908;32;19985;-70
2022/07/20 10:29:23;;;;;;;;;;;;;;;43.87;17.86;100564.09;4393193;32;20364;-70
2022/07/20 10:31:49;;;;;;;;;;;;;;;43.92;17.93;100559.84;4393265;32;19962;-71
2022/07/20 10:34:35;;;;;;;;;;;;;;;42.75;18.85;100559.94;4394828;32;20277;-70
2022/07/20 10:37:21;;;;;;;;;;;;;;;42.76;18.72;100546.69;4395639;32;20363;-69
2022/07/20 10:39:47;;;;;;;;;;;;;;;43.09;18.47;100546.66;4393893;32;19993;-70
2022/07/20 10:42:33;;;;;;;;;;;;;;;43.53;18.02;100544.88;4393228;32;20349;-69
2022/07/20 10:45:19;;;;;;;;;;;;;;;43.23;17.99;100546.53;4392156;32;20338;-70
2022/07/20 10:48:11;;;;;;;;;;;;;;;42.84;18.56;100555.91;4392926;32;20280;-69
2022/07/20 10:50:39;;;;;;;;;;;;;;;43.44;17.93;100546.72;4393353;32;20341;-70
2022/07/20 11:00:59;;;;;;;;;;;;;;;44.99;17.16;100555.78;3941383;32;15724543;-70
2022/07/20 11:03:27;;;;;;;;;;;;;;;44.99;17.16;100555.78;4418589;32;20008;-69
2022/07/20 11:06:01;;;;;;;;;;;;;;;44.78;17.09;100555.06;4422384;32;19985;-69
2022/07/20 11:08:26;;;;;;;;;;;;;;;44.61;17.17;100561.84;4419568;32;19975;-70
2022/07/20 11:10:52;;;;;;;;;;;;;;;44.54;17.14;100560.06;4416074;32;20329;-69
2022/07/20 11:13:17;;;;;;;;;;;;;;;43.09;18.44;100559.28;4416785;32;19992;-69
2022/07/20 11:15:45;;;;;;;;;;;;;;;43.73;17.88;100552.37;4419541;32;19972;-70
2022/07/20 11:18:12;;;;;;;;;;;;;;;43.58;17.97;100556.19;4417655;32;20025;-69
2022/07/20 11:20:58;;;;;;;;;;;;;;;44.64;17.08;100563.47;4415637;32;20061;-69
2022/07/20 11:23:26;;;;;;;;;;;;;;;44.79;16.99;100547.66;4417717;32;20005;-69
2022/07/20 11:28:30;;;;;;;;;;;;;;;44.18;17.67;100549.00;3945793;32;15723302;-70
2022/07/20 11:30:57;;;;;;;;;;;;;;;44.18;17.67;100549.00;4431354;32;20377;-69
2022/07/20 11:33:27;;;;;;;;;;;;;;;42.04;19.36;100544.03;4431064;32;20242;-69
2022/07/20 11:35:53;;;;;;;;;;;;;;;43.34;18.18;100537.38;4431179;32;19989;-69
2022/07/20 11:38:19;;;;;;;;;;;;;;;42.72;18.50;100525.75;4432530;32;19957;-69
2022/07/20 11:41:01;;;;;;;;;;;;;;;42.54;18.73;100528.66;4430519;32;20461;-69
2022/07/20 11:43:27;;;;;;;;;;;;;;;43.06;18.26;100545.03;4426463;32;20292;-69
2022/07/20 11:45:53;;;;;;;;;;;;;;;42.01;19.13;100560.16;4428075;32;20015;-70
2022/07/20 11:48:20;;;;;;;;;;;;;;;41.49;19.70;100559.72;4428923;32;20002;-71
2022/07/20 11:50:46;;;;;;;;;;;;;;;40.69;20.41;100568.06;4428270;32;20116;-70
2022/07/20 11:53:31;;;;;;;;;;;;;;;40.30;20.97;100579.19;4429499;32;20029;-70
2022/07/20 11:55:58;;;;;;;;;;;;;;;40.10;21.20;100586.88;4426846;32;20054;-70
2022/07/20 11:58:40;;;;;;;;;;;;;;;39.99;21.30;100593.59;4429793;32;19972;-70
2022/07/20 12:01:07;;;;;;;;;;;;;;;40.67;20.60;100588.63;4412695;32;19997;-70
2022/07/20 12:03:34;;;;;;;;;;;;;;;40.44;20.70;100586.63;4432926;32;19992;-70
2022/07/20 12:06:04;;;;;;;;;;;;;;;41.58;19.67;100576.44;4432129;32;20012;-71
2022/07/20 12:08:30;;;;;;;;;;;;;;;42.68;18.55;100578.84;4428902;32;20853;-71
2022/07/20 12:10:56;;;;;;;;;;;;;;;43.06;17.99;100583.53;4434381;32;19956;-72
2022/07/20 12:13:22;;;;;;;;;;;;;;;43.79;17.32;100591.16;4434812;32;20015;-71
2022/07/20 12:15:52;;;;;;;;;;;;;;;43.80;17.39;100577.13;4429258;32;20035;-70
2022/07/20 12:18:37;;;;;;;;;;;;;;;43.41;17.74;100586.59;4428365;32;20033;-70
2022/07/20 12:21:04;;;;;;;;;;;;;;;43.75;17.31;100599.13;4428684;32;20000;-69
2022/07/20 12:23:31;;;;;;;;;;;;;;;42.64;18.24;100585.34;4429366;32;19999;-69
2022/07/20 12:25:57;;;;;;;;;;;;;;;43.22;17.94;100592.41;4431918;32;20323;-71
2022/07/20 12:28:40;;;;;;;;;;;;;;;44.29;16.87;100596.19;4431723;32;20016;-71
2022/07/20 12:31:13;;;;;;;;;;;;;;;43.93;17.20;100596.94;4430033;32;20371;-69
2022/07/20 12:33:58;;;;;;;;;;;;;;;44.48;16.68;100592.50;4431527;32;19952;-69
2022/07/20 12:36:30;;;;;;;;;;;;;;;44.26;16.82;100579.03;4431543;32;19958;-68
2022/07/20 12:38:56;;;;;;;;;;;;;;;42.89;18.14;100575.38;4423640;32;20020;-70
2022/07/20 12:41:21;;;;;;;;;;;;;;;42.25;18.78;100599.00;4419581;32;19981;-70
2022/07/20 12:43:47;;;;;;;;;;;;;;;42.68;18.38;100579.63;4418315;32;20243;-70
2022/07/20 12:46:14;;;;;;;;;;;;;;;44.36;16.94;100600.94;4418812;32;20158;-69
2022/07/20 12:48:42;;;;;;;;;;;;;;;42.98;17.99;100607.63;4418061;32;20000;-69
2022/07/20 12:51:08;;;;;;;;;;;;;;;43.95;17.29;100600.75;4424576;32;19989;-69
2022/07/20 12:53:35;;;;;;;;;;;;;;;43.73;17.35;100602.00;4421604;32;19961;-69
2022/07/20 12:56:01;;;;;;;;;;;;;;;43.92;17.17;100602.09;4424801;32;19992;-69